Carlisle, Ohio
Current Conditions -  °F | °C
As of 5:53 AM on Monday 20 Oct 2014 (Local Time) from KMGY Reporting Station
Broken Clouds Broken Clouds  
Wind Chill: 44°   Ceiling: 11000
Heat Index: 46°   Visibility: 10mi
Dew Point: 42°   Wind: 5mph
Humidity: 86%   Direction: 190°S
Pressure: 29.99"   Gusts: NA
Location:  39.5216°N, 84.2838°W
Report Text: KMGY 200953Z AUTO 19004KT 10SM BKN110 08/06 A2999 RMK AO2 SLP157 T00780056
Loading
Personal Weather Stations






























Interactive Weather Map
Tropical Storm Tracking
New forecast layout! Learn more

10-Day Weather Forecast

Advertisements
Track Severe Weather on mobile